Bell Canyon, California
Current Conditions -  °F | °C
As of 8:51 AM on Friday 28 Nov 2014 (Local Time) from KVNY Reporting Station
Clear Clear  
Wind Chill: 63°   Ceiling: Unl
Heat Index: 63°   Visibility: 10mi
Dew Point: 29°   Wind: 0mph
Humidity: 28%   Direction: NA
Pressure: 30.02"   Gusts: NA
Location:  34.2068°N, 118.679°W
Report Text: KVNY 281651Z 00000KT 10SM CLR 17/M02 A3002 RMK AO2 SLP158 T01721017
Loading
Personal Weather Stations






























Interactive Weather Map New forecast layout! Learn more

10-Day Weather Forecast

Advertisements
Track Severe Weather on mobile